Time;durP1;ratioP1;P1;durP2;ratioP2;P2;SDS_P1;SDS_P2;PMS_P1;PMS_P2;Temp;Humidity;BMP_temperature;BMP_pressure;BME280_temperature;BME280_humidity;BME280_pressure;Samples;Min_cycle;Max_cycle;Signal;HPM_P1;HPM_P2
2022/06/03 01:06:14;;;;;;;;;;;;;;;17.40;45.16;99885.03;1086671;54;21324;-79
2022/06/03 01:07:21;;;;;;;;;;;;;;;17.39;45.13;99885.22;1088947;39;20934;-78
2022/06/03 01:08:35;;;;;;;;;;;;;;;17.38;45.51;99888.97;1091563;39;20708;-79
2022/06/03 01:09:59;;;;;;;;;;;;;;;17.31;45.35;99884.31;1087995;54;19943;-79
2022/06/03 01:11:09;;;;;;;;;;;;;;;17.23;45.63;99887.16;1088125;54;19947;-77
2022/06/03 01:12:19;;;;;;;;;;;;;;;17.21;45.48;99889.19;1087955;54;19943;-78
2022/06/03 01:13:39;;;;;;;;;;;;;;;17.19;45.46;99890.44;1090903;39;20479;-77
2022/06/03 01:14:50;;;;;;;;;;;;;;;17.11;45.58;99894.06;1087905;54;19998;-79
2022/06/03 01:15:57;;;;;;;;;;;;;;;17.06;45.85;99888.44;1087913;54;19943;-77
2022/06/03 01:17:01;;;;;;;;;;;;;;;17.07;46.06;99892.81;1087915;54;19950;-79
2022/06/03 01:18:12;;;;;;;;;;;;;;;17.04;45.90;99891.31;1088002;54;19954;-78
2022/06/03 01:19:16;;;;;;;;;;;;;;;17.02;46.02;99889.81;1087953;54;19943;-78
2022/06/03 01:20:23;;;;;;;;;;;;;;;17.05;46.08;99884.03;1088762;39;21007;-79
2022/06/03 01:21:35;;;;;;;;;;;;;;;17.05;46.15;99884.03;1087917;54;19946;-76
2022/06/03 01:22:53;;;;;;;;;;;;;;;17.07;45.91;99887.41;1088924;39;20520;-79
2022/06/03 01:24:09;;;;;;;;;;;;;;;17.11;45.66;99885.97;1087964;54;19942;-77
2022/06/03 01:25:39;;;;;;;;;;;;;;;17.18;45.67;99894.16;1087395;54;19950;-77
2022/06/03 01:26:58;;;;;;;;;;;;;;;17.17;45.70;99887.94;1087832;54;19947;-77
2022/06/03 01:28:19;;;;;;;;;;;;;;;17.18;45.30;99886.03;1087874;54;20740;-78
2022/06/03 01:29:38;;;;;;;;;;;;;;;17.22;45.66;99893.56;1088324;54;19950;-80
2022/06/03 01:30:51;;;;;;;;;;;;;;;17.27;45.14;99893.84;1088256;54;19942;-78
2022/06/03 01:32:08;;;;;;;;;;;;;;;17.21;45.01;99894.59;1088368;54;19942;-79
2022/06/03 01:33:33;;;;;;;;;;;;;;;17.22;44.96;99893.56;1088180;54;19950;-78
2022/06/03 01:34:43;;;;;;;;;;;;;;;17.24;45.08;99902.34;1088019;54;19927;-77
2022/06/03 01:35:55;;;;;;;;;;;;;;;17.32;44.81;99901.38;1088046;54;20016;-77
2022/06/03 01:37:13;;;;;;;;;;;;;;;17.36;45.28;99885.63;1088163;54;19943;-78
2022/06/03 01:38:24;;;;;;;;;;;;;;;17.39;45.17;99898.72;1088018;46;19962;-76
2022/06/03 01:39:51;;;;;;;;;;;;;;;17.39;45.48;99896.88;1087989;54;19942;-77
2022/06/03 01:41:08;;;;;;;;;;;;;;;17.44;45.34;99893.59;1088153;54;19967;-78
2022/06/03 01:42:27;;;;;;;;;;;;;;;17.43;45.23;99903.53;1090441;39;20459;-77
2022/06/03 01:43:57;;;;;;;;;;;;;;;17.45;45.49;99903.38;1086368;54;19926;-77
2022/06/03 01:45:13;;;;;;;;;;;;;;;17.35;45.67;99900.97;1086725;46;19939;-77
2022/06/03 01:46:32;;;;;;;;;;;;;;;17.33;45.94;99892.25;1084533;54;19947;-77
2022/06/03 01:47:48;;;;;;;;;;;;;;;17.25;46.02;99906.72;1088728;46;19990;-77
2022/06/03 01:49:04;;;;;;;;;;;;;;;17.23;45.94;99897.94;1087600;54;19943;-76
2022/06/03 01:50:17;;;;;;;;;;;;;;;17.22;46.01;99901.69;1087258;54;19943;-77
2022/06/03 01:51:31;;;;;;;;;;;;;;;17.18;46.17;99903.09;1087505;54;20762;-76
2022/06/03 01:52:48;;;;;;;;;;;;;;;17.10;46.42;99897.81;1087589;54;19947;-79
2022/06/03 01:54:24;;;;;;;;;;;;;;;17.08;46.29;99899.88;1088072;54;19942;-77
2022/06/03 01:55:41;;;;;;;;;;;;;;;17.11;46.05;99899.47;1087862;54;19942;-77
2022/06/03 01:56:55;;;;;;;;;;;;;;;17.11;46.38;99894.06;1089547;39;20469;-77
2022/06/03 01:58:13;;;;;;;;;;;;;;;17.14;46.27;99899.09;1087763;54;20015;-77
2022/06/03 01:59:35;;;;;;;;;;;;;;;17.14;46.03;99891.00;1087794;46;19994;-76
2022/06/03 02:00:38;;;;;;;;;;;;;;;17.19;45.91;99898.53;1087917;54;20694;-77
2022/06/03 02:01:59;;;;;;;;;;;;;;;17.21;45.89;99896.47;1087924;54;19998;-77
2022/06/03 02:03:17;;;;;;;;;;;;;;;17.22;45.76;99896.28;1088021;54;19942;-77
2022/06/03 02:04:35;;;;;;;;;;;;;;;17.25;45.97;99901.31;1088101;54;19927;-77
2022/06/03 02:05:57;;;;;;;;;;;;;;;17.22;45.72;99907.09;1088003;54;19950;-77
2022/06/03 02:07:16;;;;;;;;;;;;;;;17.24;45.81;99909.63;1087464;54;19950;-77
2022/06/03 02:08:29;;;;;;;;;;;;;;;17.15;46.21;99900.78;1088036;54;20563;-77
2022/06/03 02:09:57;;;;;;;;;;;;;;;17.18;46.12;99902.25;1088135;54;19943;-79
2022/06/03 02:11:08;;;;;;;;;;;;;;;17.07;46.22;99904.44;1087846;54;19999;-79
2022/06/03 02:12:25;;;;;;;;;;;;;;;16.97;46.54;99896.66;1087888;54;19957;-77
2022/06/03 02:13:41;;;;;;;;;;;;;;;16.89;47.00;99896.72;1087942;54;20732;-77
2022/06/03 02:15:00;;;;;;;;;;;;;;;16.85;46.69;99890.03;1087571;54;19954;-78
2022/06/03 02:16:11;;;;;;;;;;;;;;;16.81;46.73;99889.56;1087459;54;19954;-77
2022/06/03 02:17:21;;;;;;;;;;;;;;;16.75;46.86;99894.88;1088013;54;19973;-78
2022/06/03 02:18:37;;;;;;;;;;;;;;;16.68;47.25;99892.94;1088045;54;19942;-78
2022/06/03 02:19:50;;;;;;;;;;;;;;;16.61;47.46;99892.03;1088004;54;20020;-78
2022/06/03 02:21:03;;;;;;;;;;;;;;;16.57;47.27;99893.44;1087820;54;19953;-78
2022/06/03 02:22:36;;;;;;;;;;;;;;;16.61;47.15;99891.19;1088172;54;20024;-78
2022/06/03 02:23:58;;;;;;;;;;;;;;;16.59;47.44;99891.38;1088819;39;20603;-77
2022/06/03 02:25:21;;;;;;;;;;;;;;;16.57;47.58;99888.03;1087955;54;19938;-77
2022/06/03 02:26:30;;;;;;;;;;;;;;;16.58;47.25;99889.72;1087937;54;20811;-77
2022/06/03 02:27:47;;;;;;;;;;;;;;;16.56;47.13;99893.63;1089865;46;20010;-79
2022/06/03 02:30:45;;;;;;;;;;;;;;;16.54;47.07;99885.69;1087958;54;19942;-78
2022/06/03 02:31:54;;;;;;;;;;;;;;;16.53;47.12;99889.44;1087299;54;19981;-78
2022/06/03 02:33:13;;;;;;;;;;;;;;;16.53;47.31;99892.97;1087869;54;19978;-78
2022/06/03 02:34:29;;;;;;;;;;;;;;;16.48;47.57;99889.97;1088755;39;20566;-78
2022/06/03 02:35:44;;;;;;;;;;;;;;;16.51;47.09;99892.31;1087810;54;19950;-78
2022/06/03 02:37:15;;;;;;;;;;;;;;;16.45;47.80;99886.81;1087833;54;19957;-77
2022/06/03 02:38:29;;;;;;;;;;;;;;;16.47;47.49;99885.63;1088239;39;20467;-78
2022/06/03 02:39:45;;;;;;;;;;;;;;;16.42;47.19;99885.34;1087709;54;19934;-76
2022/06/03 02:40:59;;;;;;;;;;;;;;;16.35;47.87;99885.25;1088007;54;19954;-79
2022/06/03 02:42:10;;;;;;;;;;;;;;;16.33;47.43;99889.16;1087902;54;20615;-77
2022/06/03 02:43:24;;;;;;;;;;;;;;;16.29;47.91;99888.69;1087469;54;19954;-78
2022/06/03 02:44:39;;;;;;;;;;;;;;;16.30;47.66;99886.81;1087851;54;19942;-78
2022/06/03 02:45:48;;;;;;;;;;;;;;;16.24;47.47;99877.66;1088114;46;19975;-78
2022/06/03 02:47:02;;;;;;;;;;;;;;;16.16;47.37;99883.09;1087250;54;19968;-78
2022/06/03 02:48:30;;;;;;;;;;;;;;;16.19;47.24;99880.91;1087138;54;20094;-79
2022/06/03 02:49:51;;;;;;;;;;;;;;;16.19;47.17;99885.44;1087698;54;19948;-78
2022/06/03 02:51:11;;;;;;;;;;;;;;;16.13;47.16;99881.63;1087802;54;19942;-78
2022/06/03 02:52:27;;;;;;;;;;;;;;;16.10;47.32;99878.47;1087939;54;19943;-80
2022/06/03 02:53:48;;;;;;;;;;;;;;;16.07;47.42;99887.75;1088685;39;20492;-79
2022/06/03 02:55:04;;;;;;;;;;;;;;;15.99;47.51;99885.97;1088007;54;19942;-78
2022/06/03 02:56:17;;;;;;;;;;;;;;;15.98;47.54;99895.09;1086793;54;19942;-78
2022/06/03 02:57:44;;;;;;;;;;;;;;;15.99;47.30;99901.34;1086620;54;20688;-78
2022/06/03 02:58:53;;;;;;;;;;;;;;;15.99;47.42;99890.56;1087134;54;19942;-80
2022/06/03 03:00:05;;;;;;;;;;;;;;;16.01;47.33;99899.28;1087221;39;20514;-78
2022/06/03 03:01:25;;;;;;;;;;;;;;;15.99;47.40;99890.56;1087014;39;20598;-80
2022/06/03 03:02:40;;;;;;;;;;;;;;;15.99;47.42;99902.16;1086208;54;19946;-78
2022/06/03 03:03:59;;;;;;;;;;;;;;;15.97;47.40;99893.41;1087296;54;19975;-77
2022/06/03 03:05:07;;;;;;;;;;;;;;;16.02;47.17;99895.56;1086989;54;20022;-77
2022/06/03 03:06:28;;;;;;;;;;;;;;;16.04;47.32;99898.91;1087357;54;19960;-78
2022/06/03 03:07:44;;;;;;;;;;;;;;;16.02;47.64;99896.41;1087486;54;19948;-78
2022/06/03 03:09:04;;;;;;;;;;;;;;;15.99;47.51;99895.94;1087922;54;20101;-77
2022/06/03 03:10:15;;;;;;;;;;;;;;;15.93;48.06;99897.50;1088019;54;19962;-78
2022/06/03 03:11:27;;;;;;;;;;;;;;;15.88;48.07;99900.75;1087876;54;19994;-79
2022/06/03 03:12:48;;;;;;;;;;;;;;;15.79;48.50;99899.13;1087280;54;19946;-78
2022/06/03 03:14:16;;;;;;;;;;;;;;;15.80;48.54;99897.25;1088093;54;19950;-79
2022/06/03 03:15:24;;;;;;;;;;;;;;;15.74;48.86;99901.50;1088197;54;19935;-80
2022/06/03 03:16:46;;;;;;;;;;;;;;;15.78;48.83;99901.97;1088116;54;19942;-78
2022/06/03 03:18:02;;;;;;;;;;;;;;;15.75;48.58;99903.19;1087673;54;19943;-78
2022/06/03 03:19:20;;;;;;;;;;;;;;;15.66;48.33;99902.44;1089296;39;20567;-80
2022/06/03 03:20:36;;;;;;;;;;;;;;;15.63;48.92;99896.59;1087943;54;19950;-79
2022/06/03 03:21:54;;;;;;;;;;;;;;;15.62;48.37;99895.72;1087241;54;19954;-80
2022/06/03 03:23:07;;;;;;;;;;;;;;;15.60;48.39;99901.31;1086812;39;20412;-79
2022/06/03 03:24:28;;;;;;;;;;;;;;;15.59;48.16;99906.84;1087930;54;19939;-79
2022/06/03 03:25:38;;;;;;;;;;;;;;;15.53;48.54;99904.91;1088235;54;20019;-79
2022/06/03 03:26:51;;;;;;;;;;;;;;;15.54;48.46;99899.31;1088163;54;20015;-81
2022/06/03 03:28:12;;;;;;;;;;;;;;;15.55;48.38;99903.69;1087830;54;20519;-79
2022/06/03 03:29:31;;;;;;;;;;;;;;;15.55;48.49;99906.38;1087188;54;19950;-79
2022/06/03 03:30:36;;;;;;;;;;;;;;;15.54;48.30;99898.50;1087765;54;19946;-77
2022/06/03 03:31:46;;;;;;;;;;;;;;;15.51;48.23;99904.22;1087778;54;19927;-79
2022/06/03 03:33:04;;;;;;;;;;;;;;;15.46;48.19;99903.94;1087949;54;19934;-79
2022/06/03 03:34:15;;;;;;;;;;;;;;;15.43;48.59;99908.66;1087630;54;19943;-79
2022/06/03 03:35:34;;;;;;;;;;;;;;;15.40;48.24;99903.63;1087874;54;19942;-78
2022/06/03 03:37:00;;;;;;;;;;;;;;;15.41;48.39;99908.00;1087813;54;20734;-78
2022/06/03 03:38:16;;;;;;;;;;;;;;;15.39;48.38;99906.53;1087640;54;19943;-78
2022/06/03 03:39:35;;;;;;;;;;;;;;;15.41;48.53;99905.31;1087551;54;19931;-79
2022/06/03 03:40:50;;;;;;;;;;;;;;;15.40;48.25;99914.41;1087761;46;19966;-78
2022/06/03 03:42:09;;;;;;;;;;;;;;;15.38;48.30;99900.31;1087766;54;19927;-80
2022/06/03 03:43:34;;;;;;;;;;;;;;;15.36;48.09;99901.47;1087945;54;19942;-78
2022/06/03 03:44:59;;;;;;;;;;;;;;;15.33;48.62;99902.69;1087821;54;19950;-80
2022/06/03 03:46:11;;;;;;;;;;;;;;;15.37;48.21;99905.84;1087642;54;20536;-79
2022/06/03 03:47:35;;;;;;;;;;;;;;;15.34;48.37;99895.47;1087979;54;19982;-79
2022/06/03 03:49:06;;;;;;;;;;;;;;;15.33;48.25;99908.06;1087859;54;19950;-81
2022/06/03 03:50:26;;;;;;;;;;;;;;;15.34;48.50;99898.97;1087827;54;20651;-78
2022/06/03 03:51:45;;;;;;;;;;;;;;;15.33;48.35;99902.69;1087614;54;19950;-79
2022/06/03 03:53:06;;;;;;;;;;;;;;;15.31;48.44;99901.19;1087753;54;19933;-78
2022/06/03 03:54:28;;;;;;;;;;;;;;;15.30;48.38;99911.16;1087694;54;19927;-77
2022/06/03 03:55:52;;;;;;;;;;;;;;;15.29;48.36;99902.22;1087092;54;19942;-78
2022/06/03 03:57:25;;;;;;;;;;;;;;;15.32;48.19;99911.78;1087812;54;19970;-78
2022/06/03 03:58:55;;;;;;;;;;;;;;;15.33;48.71;99908.06;1087874;54;19950;-80
2022/06/03 04:00:29;;;;;;;;;;;;;;;15.38;48.16;99905.69;1087886;54;19926;-78
2022/06/03 04:01:45;;;;;;;;;;;;;;;15.38;48.48;99908.38;1087502;54;19935;-78
2022/06/03 04:03:08;;;;;;;;;;;;;;;15.42;48.11;99904.31;1087197;54;19935;-78
2022/06/03 04:04:22;;;;;;;;;;;;;;;15.39;48.17;99902.00;1085288;54;19942;-78
2022/06/03 04:05:43;;;;;;;;;;;;;;;15.40;48.07;99903.63;1087291;54;19967;-77
2022/06/03 04:07:04;;;;;;;;;;;;;;;15.41;48.50;99897.22;1089525;39;20767;-78
2022/06/03 04:08:20;;;;;;;;;;;;;;;15.43;47.96;99892.50;1087036;54;19933;-79
2022/06/03 04:09:38;;;;;;;;;;;;;;;15.40;48.15;99900.94;1085693;54;20003;-78
2022/06/03 04:11:00;;;;;;;;;;;;;;;15.40;48.48;99895.56;1086160;54;19943;-78
2022/06/03 04:12:24;;;;;;;;;;;;;;;15.36;48.34;99896.94;1086821;54;19942;-80
2022/06/03 04:13:41;;;;;;;;;;;;;;;15.30;48.55;99889.59;1087390;54;19954;-80
2022/06/03 04:15:02;;;;;;;;;;;;;;;15.37;48.67;99887.00;1087032;54;19942;-78
2022/06/03 04:16:21;;;;;;;;;;;;;;;15.37;48.22;99877.09;1087322;54;20962;-79
2022/06/03 04:17:33;;;;;;;;;;;;;;;15.34;48.47;99877.44;1086996;54;19946;-78
2022/06/03 04:18:56;;;;;;;;;;;;;;;15.33;48.87;99874.94;1087312;54;20701;-78
2022/06/03 04:20:23;;;;;;;;;;;;;;;15.27;48.60;99866.53;1087274;54;19965;-77
2022/06/03 04:21:37;;;;;;;;;;;;;;;15.24;48.49;99866.06;1087158;54;19939;-78
2022/06/03 04:23:07;;;;;;;;;;;;;;;15.22;48.89;99873.47;1087233;54;19943;-77
2022/06/03 04:24:29;;;;;;;;;;;;;;;15.20;48.53;99870.97;1087713;54;19949;-78
2022/06/03 04:25:40;;;;;;;;;;;;;;;15.22;48.67;99873.47;1087702;54;19949;-78
2022/06/03 04:26:57;;;;;;;;;;;;;;;15.23;48.43;99867.94;1088253;47;19947;-78
2022/06/03 04:28:08;;;;;;;;;;;;;;;15.28;48.41;99865.53;1087698;54;19946;-78
2022/06/03 04:29:36;;;;;;;;;;;;;;;15.31;48.56;99867.00;1087750;54;19947;-79
2022/06/03 04:30:54;;;;;;;;;;;;;;;15.32;48.24;99857.91;1087077;54;19976;-78
2022/06/03 04:32:11;;;;;;;;;;;;;;;15.31;48.53;99871.56;1087615;54;19943;-78
2022/06/03 04:33:30;;;;;;;;;;;;;;;15.36;48.53;99864.63;1087450;54;19954;-79
2022/06/03 04:34:42;;;;;;;;;;;;;;;15.36;48.61;99867.31;1087560;54;19950;-79
2022/06/03 04:36:05;;;;;;;;;;;;;;;15.36;48.43;99872.72;1088878;47;19973;-78
2022/06/03 04:37:21;;;;;;;;;;;;;;;15.34;48.45;99882.00;1087781;54;19943;-78
2022/06/03 04:38:40;;;;;;;;;;;;;;;15.29;48.67;99877.16;1087632;54;19995;-78
2022/06/03 04:39:56;;;;;;;;;;;;;;;15.31;48.72;99875.09;1088426;47;19943;-78
2022/06/03 04:41:27;;;;;;;;;;;;;;;15.33;48.63;99873.06;1092196;39;20539;-78
2022/06/03 04:43:01;;;;;;;;;;;;;;;15.36;48.67;99870.03;1088188;54;19966;-78
2022/06/03 04:44:19;;;;;;;;;;;;;;;15.32;48.93;99866.00;1088127;54;20011;-78
2022/06/03 04:45:38;;;;;;;;;;;;;;;15.36;48.83;99864.63;1088073;54;19953;-80
2022/06/03 04:47:06;;;;;;;;;;;;;;;15.33;48.63;99864.97;1088463;54;19942;-79
2022/06/03 04:48:31;;;;;;;;;;;;;;;15.30;49.00;99870.75;1088175;54;19966;-79
2022/06/03 04:49:47;;;;;;;;;;;;;;;15.30;48.79;99865.38;1088363;54;19947;-77
2022/06/03 04:51:07;;;;;;;;;;;;;;;15.31;48.90;99871.56;1091163;39;20544;-78
2022/06/03 04:52:35;;;;;;;;;;;;;;;15.34;49.11;99872.03;1088304;54;19939;-78
2022/06/03 04:53:54;;;;;;;;;;;;;;;15.37;48.91;99869.00;1088023;54;20464;-79
2022/06/03 04:55:12;;;;;;;;;;;;;;;15.41;48.67;99866.78;1088004;54;19946;-78
2022/06/03 04:56:43;;;;;;;;;;;;;;;15.42;48.69;99869.28;1088019;54;20546;-78
2022/06/03 04:57:59;;;;;;;;;;;;;;;15.48;48.83;99864.22;1088133;54;19954;-78
2022/06/03 04:59:28;;;;;;;;;;;;;;;15.51;48.52;99861.13;1089374;46;19942;-78
2022/06/03 05:00:43;;;;;;;;;;;;;;;15.54;48.80;99871.56;1088455;54;19946;-77
2022/06/03 05:02:07;;;;;;;;;;;;;;;15.55;48.50;99867.84;1088209;54;19974;-76
2022/06/03 05:03:26;;;;;;;;;;;;;;;15.56;48.41;99864.97;1088953;39;20404;-77
2022/06/03 05:04:45;;;;;;;;;;;;;;;15.57;48.57;99869.34;1088386;54;19950;-78
2022/06/03 05:06:04;;;;;;;;;;;;;;;15.62;48.42;99870.66;1087956;54;19938;-78
2022/06/03 05:07:20;;;;;;;;;;;;;;;15.64;48.40;99861.38;1088420;54;20476;-77
2022/06/03 05:08:45;;;;;;;;;;;;;;;15.67;48.51;99866.41;1087997;54;19942;-77
2022/06/03 05:10:04;;;;;;;;;;;;;;;15.65;48.27;99867.56;1088349;54;19986;-77
2022/06/03 05:11:20;;;;;;;;;;;;;;;15.69;48.65;99869.72;1088028;54;19950;-78
2022/06/03 05:12:39;;;;;;;;;;;;;;;15.74;48.43;99867.34;1088381;54;19949;-77
2022/06/03 05:13:55;;;;;;;;;;;;;;;15.79;48.40;99872.19;1088331;54;19943;-77
2022/06/03 05:15:14;;;;;;;;;;;;;;;15.81;48.32;99863.91;1088190;46;19966;-78
2022/06/03 05:16:42;;;;;;;;;;;;;;;15.87;48.29;99865.91;1087986;54;19966;-77
2022/06/03 05:18:01;;;;;;;;;;;;;;;15.87;48.42;99865.91;1088059;54;19927;-78
2022/06/03 05:19:26;;;;;;;;;;;;;;;15.90;48.30;99865.53;1088002;54;19965;-77
2022/06/03 05:20:47;;;;;;;;;;;;;;;15.93;48.19;99859.78;1087983;54;19942;-78
2022/06/03 05:22:05;;;;;;;;;;;;;;;15.93;48.23;99864.31;1087961;54;19935;-77
2022/06/03 05:23:36;;;;;;;;;;;;;;;15.95;48.60;99863.13;1088107;54;19927;-78
2022/06/03 05:24:54;;;;;;;;;;;;;;;15.96;48.63;99862.09;1088752;46;19958;-79
2022/06/03 05:26:07;;;;;;;;;;;;;;;15.95;48.25;99846.09;1088039;54;19942;-80
2022/06/03 05:27:32;;;;;;;;;;;;;;;15.94;48.12;99845.28;1088418;54;19939;-79
2022/06/03 05:28:47;;;;;;;;;;;;;;;16.01;48.32;99850.78;1089715;46;19963;-77
2022/06/03 05:30:02;;;;;;;;;;;;;;;16.09;48.24;99856.06;1087641;46;20027;-77
2022/06/03 05:31:27;;;;;;;;;;;;;;;16.04;48.30;99856.63;1087888;54;19949;-80
2022/06/03 05:32:43;;;;;;;;;;;;;;;16.16;47.76;99859.69;1087732;54;20601;-78
2022/06/03 05:33:54;;;;;;;;;;;;;;;16.27;47.91;99858.38;1087617;54;20013;-78
2022/06/03 05:35:15;;;;;;;;;;;;;;;16.29;47.72;99867.13;1087213;54;19943;-77
2022/06/03 05:36:36;;;;;;;;;;;;;;;16.29;47.77;99861.72;1087475;54;19942;-79
2022/06/03 05:37:55;;;;;;;;;;;;;;;16.37;47.77;99864.31;1087277;54;19942;-78
2022/06/03 05:39:31;;;;;;;;;;;;;;;16.34;47.89;99861.16;1087186;54;20709;-78
2022/06/03 05:40:45;;;;;;;;;;;;;;;16.32;47.98;99861.38;1090707;39;20217;-79
2022/06/03 05:43:36;;;;;;;;;;;;;;;16.38;48.24;99867.88;1087978;54;19935;-83
2022/06/03 05:44:48;;;;;;;;;;;;;;;16.43;48.13;99868.13;1088247;54;19939;-79
2022/06/03 05:46:06;;;;;;;;;;;;;;;16.45;47.82;99867.94;1088191;54;19938;-79
2022/06/03 05:47:14;;;;;;;;;;;;;;;16.50;48.27;99860.13;1088568;46;19938;-81
2022/06/03 05:48:22;;;;;;;;;;;;;;;16.60;47.75;99859.81;1090637;46;19945;-79
2022/06/03 05:49:34;;;;;;;;;;;;;;;16.65;48.03;99858.22;1088175;54;19959;-78
2022/06/03 05:50:45;;;;;;;;;;;;;;;16.61;48.30;99856.97;1088114;54;20006;-77
2022/06/03 05:51:52;;;;;;;;;;;;;;;16.66;48.08;99857.22;1087675;54;19986;-78
2022/06/03 05:53:04;;;;;;;;;;;;;;;16.70;48.07;99849.56;1089030;46;19961;-77
2022/06/03 05:54:14;;;;;;;;;;;;;;;16.75;47.71;99846.31;1087698;54;19976;-78
2022/06/03 05:55:34;;;;;;;;;;;;;;;16.80;47.96;99858.19;1087711;54;19957;-77
2022/06/03 05:56:44;;;;;;;;;;;;;;;16.77;47.81;99857.75;1087726;46;20254;-76
2022/06/03 05:57:52;;;;;;;;;;;;;;;16.76;47.73;99853.38;1087330;54;20625;-78
2022/06/03 05:58:59;;;;;;;;;;;;;;;16.78;48.25;99856.72;1087618;54;19950;-78
2022/06/03 06:00:12;;;;;;;;;;;;;;;16.81;47.84;99856.34;1087686;54;19967;-77
2022/06/03 06:01:30;;;;;;;;;;;;;;;16.92;47.61;99855.00;1087619;54;19943;-76
2022/06/03 06:02:35;;;;;;;;;;;;;;;17.02;47.64;99852.00;1087292;54;20066;-80
2022/06/03 06:03:44;;;;;;;;;;;;;;;17.06;47.67;99853.31;1087798;54;19944;-77
2022/06/03 06:04:59;;;;;;;;;;;;;;;17.13;47.22;99848.81;1087707;54;19949;-77
2022/06/03 06:06:13;;;;;;;;;;;;;;;17.16;47.34;99853.84;1087985;54;20507;-77
2022/06/03 06:07:21;;;;;;;;;;;;;;;17.16;47.40;99845.75;1088003;54;19953;-78
2022/06/03 06:08:28;;;;;;;;;;;;;;;17.12;47.72;99847.13;1087894;54;19933;-77
2022/06/03 06:09:56;;;;;;;;;;;;;;;17.08;47.46;99844.00;1088136;54;19954;-79
2022/06/03 06:11:06;;;;;;;;;;;;;;;17.14;47.39;99845.09;1088101;54;19953;-76
2022/06/03 06:12:20;;;;;;;;;;;;;;;17.21;47.45;99840.56;1091586;46;20785;-78
2022/06/03 06:13:44;;;;;;;;;;;;;;;17.27;47.30;99850.63;1088073;54;19957;-77
2022/06/03 06:14:55;;;;;;;;;;;;;;;17.35;47.48;99854.22;1087924;54;19957;-77
2022/06/03 06:16:01;;;;;;;;;;;;;;;17.44;46.78;99856.59;1086352;54;19926;-76
2022/06/03 06:17:13;;;;;;;;;;;;;;;17.51;46.98;99853.13;1086967;54;20602;-78
2022/06/03 06:18:21;;;;;;;;;;;;;;;17.56;46.94;99856.06;1086175;54;19951;-78
2022/06/03 06:19:36;;;;;;;;;;;;;;;17.54;46.76;99855.41;1094387;39;20578;-78
2022/06/03 06:20:45;;;;;;;;;;;;;;;17.60;46.54;99860.88;1092530;39;20583;-77
2022/06/03 06:22:05;;;;;;;;;;;;;;;17.64;47.30;99852.38;1088283;39;20598;-77
2022/06/03 06:23:11;;;;;;;;;;;;;;;17.61;46.93;99851.75;1088070;54;19951;-77
2022/06/03 06:24:16;;;;;;;;;;;;;;;17.57;47.32;99850.44;1088050;54;20351;-77
2022/06/03 06:25:28;;;;;;;;;;;;;;;17.54;46.82;99845.44;1087772;54;19927;-80
2022/06/03 06:26:44;;;;;;;;;;;;;;;17.58;47.04;99849.41;1088101;54;19926;-77
2022/06/03 06:28:02;;;;;;;;;;;;;;;17.59;47.19;99843.00;1088794;46;19943;-78
2022/06/03 06:29:12;;;;;;;;;;;;;;;17.68;47.01;99848.25;1088055;54;19935;-76
2022/06/03 06:30:27;;;;;;;;;;;;;;;17.71;47.12;99845.97;1088127;54;19995;-79
2022/06/03 06:31:46;;;;;;;;;;;;;;;17.71;47.16;99845.97;1088013;54;19943;-78
2022/06/03 06:33:12;;;;;;;;;;;;;;;17.73;47.22;99848.50;1088828;46;19923;-79
2022/06/03 06:34:37;;;;;;;;;;;;;;;17.77;47.05;99837.09;1087942;54;19987;-78
2022/06/03 06:36:05;;;;;;;;;;;;;;;17.84;47.13;99833.59;1087746;47;19938;-80
2022/06/03 06:37:23;;;;;;;;;;;;;;;17.93;47.06;99829.72;1091202;46;19938;-78
2022/06/03 06:38:30;;;;;;;;;;;;;;;18.03;46.90;99829.41;1087816;54;19949;-79
2022/06/03 06:39:55;;;;;;;;;;;;;;;18.11;46.82;99821.13;1087382;54;19939;-78
2022/06/03 06:41:08;;;;;;;;;;;;;;;18.19;46.78;99826.34;1087554;54;19953;-82
2022/06/03 06:42:18;;;;;;;;;;;;;;;18.19;46.27;99829.06;1089028;46;19953;-78
2022/06/03 06:43:33;;;;;;;;;;;;;;;18.30;46.43;99829.53;1087825;54;19947;-79
2022/06/03 06:44:40;;;;;;;;;;;;;;;18.40;46.18;99828.13;1087621;54;19950;-78
2022/06/03 06:46:07;;;;;;;;;;;;;;;18.43;46.40;99826.88;1087815;54;20609;-80
2022/06/03 06:47:14;;;;;;;;;;;;;;;18.45;46.14;99830.22;1087975;54;19943;-78
2022/06/03 06:48:24;;;;;;;;;;;;;;;18.55;45.88;99833.38;1087111;54;19950;-79
2022/06/03 06:49:27;;;;;;;;;;;;;;;18.65;45.93;99826.75;1089711;46;19938;-79
2022/06/03 06:50:36;;;;;;;;;;;;;;;18.75;45.85;99829.91;1087773;54;20014;-78
2022/06/03 06:51:59;;;;;;;;;;;;;;;18.89;45.60;99827.25;1088332;46;20504;-78
2022/06/03 06:53:07;;;;;;;;;;;;;;;19.06;44.99;99825.84;1087884;54;19939;-78
2022/06/03 06:54:11;;;;;;;;;;;;;;;19.15;45.04;99830.03;1087943;54;19934;-78
2022/06/03 06:55:22;;;;;;;;;;;;;;;19.09;44.92;99820.00;1088043;54;19950;-78
2022/06/03 06:56:31;;;;;;;;;;;;;;;19.21;45.06;99828.38;1087892;54;20026;-79
2022/06/03 06:57:36;;;;;;;;;;;;;;;19.33;44.92;99823.16;1087853;54;20026;-76
2022/06/03 06:58:42;;;;;;;;;;;;;;;19.29;44.51;99824.59;1087785;54;19975;-78
2022/06/03 06:59:48;;;;;;;;;;;;;;;19.41;44.36;99839.22;1088090;54;19927;-79
2022/06/03 07:00:51;;;;;;;;;;;;;;;19.51;44.36;99829.84;1088141;54;19950;-80
2022/06/03 07:02:00;;;;;;;;;;;;;;;19.67;44.10;99836.72;1086672;54;19958;-79
2022/06/03 07:03:07;;;;;;;;;;;;;;;19.69;44.45;99824.59;1088102;54;19954;-79
2022/06/03 07:04:14;;;;;;;;;;;;;;;19.83;43.90;99827.31;1088110;54;19943;-79
2022/06/03 07:06:25;;;;;;;;;;;;;;;19.84;43.92;99823.56;1086901;54;19951;-79
2022/06/03 07:07:28;;;;;;;;;;;;;;;19.73;43.88;99820.44;1087252;54;20022;-79
2022/06/03 07:08:39;;;;;;;;;;;;;;;19.80;43.82;99826.69;1087305;54;19973;-80
2022/06/03 07:10:28;;;;;;;;;;;;;;;19.89;44.13;99821.88;1088558;39;20498;-80
2022/06/03 07:11:37;;;;;;;;;;;;;;;19.85;43.97;99819.78;1088247;46;19958;-78
2022/06/03 07:12:47;;;;;;;;;;;;;;;19.87;43.71;99821.28;1087630;54;20013;-80
2022/06/03 07:15:58;;;;;;;;;;;;;;;20.15;43.18;99811.19;1087520;47;19965;-79
2022/06/03 07:22:11;;;;;;;;;;;;;;;20.67;42.56;99809.31;1088198;54;19935;-82
2022/06/03 07:23:19;;;;;;;;;;;;;;;20.80;42.16;99811.16;1087731;54;19931;-79
2022/06/03 07:24:52;;;;;;;;;;;;;;;20.93;42.00;99807.50;1088442;54;19962;-81
2022/06/03 07:26:00;;;;;;;;;;;;;;;21.04;42.17;99803.25;1087350;54;20785;-80
2022/06/03 07:27:06;;;;;;;;;;;;;;;21.14;41.67;99794.63;1087103;54;19968;-80
2022/06/03 07:28:18;;;;;;;;;;;;;;;21.25;41.62;99795.78;1086864;54;19950;-82
2022/06/03 07:29:38;;;;;;;;;;;;;;;21.41;41.22;99794.41;1087818;54;19942;-80
2022/06/03 07:30:57;;;;;;;;;;;;;;;21.59;40.93;99789.03;1088167;54;19968;-80
2022/06/03 07:32:06;;;;;;;;;;;;;;;21.58;40.85;99790.09;1087056;54;19927;-80
2022/06/03 07:33:13;;;;;;;;;;;;;;;21.75;41.00;99784.06;1087551;54;19968;-80
2022/06/03 07:34:16;;;;;;;;;;;;;;;21.85;40.83;99781.66;1086828;54;20456;-81
2022/06/03 07:35:30;;;;;;;;;;;;;;;21.92;40.60;99793.28;1088055;47;19934;-80
2022/06/03 07:39:56;;;;;;;;;;;;;;;21.73;41.06;99780.72;1087935;54;19957;-81
2022/06/03 07:41:11;;;;;;;;;;;;;;;21.97;41.02;99774.41;1087817;54;19927;-79
2022/06/03 07:42:27;;;;;;;;;;;;;;;22.05;41.18;99776.00;1087263;54;19946;-79
2022/06/03 07:46:47;;;;;;;;;;;;;;;22.40;40.05;99771.81;1087613;54;20433;-79
2022/06/03 07:49:48;;;;;;;;;;;;;;;22.67;40.11;99766.03;1087552;54;19923;-81
2022/06/03 07:54:09;;;;;;;;;;;;;;;22.93;39.63;99751.16;1087190;54;19938;-79
2022/06/03 07:56:50;;;;;;;;;;;;;;;22.87;40.55;99749.38;1087569;54;19943;-80
2022/06/03 07:58:15;;;;;;;;;;;;;;;22.89;40.19;99748.09;1089196;46;19951;-80
2022/06/03 08:00:51;;;;;;;;;;;;;;;23.08;40.44;99739.81;1087646;54;19931;-81
2022/06/03 08:01:59;;;;;;;;;;;;;;;22.93;40.54;99734.00;1087344;54;19950;-78
2022/06/03 08:04:36;;;;;;;;;;;;;;;22.70;41.07;99744.63;1087213;54;19947;-81
2022/06/03 08:13:02;;;;;;;;;;;;;;;23.01;40.78;99739.09;1087076;54;20002;-81
2022/06/03 08:14:50;;;;;;;;;;;;;;;23.29;40.78;99730.25;1088269;54;19938;-81
2022/06/03 08:16:18;;;;;;;;;;;;;;;23.71;40.18;99720.28;1088495;54;19946;-81
2022/06/03 08:17:20;;;;;;;;;;;;;;;23.77;39.57;99724.78;1086557;54;20494;-80
2022/06/03 08:18:32;;;;;;;;;;;;;;;23.72;39.81;99717.31;1087394;54;19943;-81